createdAt,value
2024-04-07T17:49:11.076Z,27.90
2024-04-07T17:51:37.896Z,27.80
2024-04-07T17:54:04.734Z,27.80
2024-04-07T17:56:31.493Z,27.70
2024-04-07T17:58:58.303Z,27.60
2024-04-07T18:01:25.175Z,27.50
2024-04-07T18:03:52.021Z,27.50
2024-04-07T18:06:19.143Z,27.40
2024-04-07T18:08:45.899Z,27.40
2024-04-07T18:11:12.670Z,27.30
2024-04-07T18:13:39.436Z,27.20
2024-04-07T18:16:06.299Z,27.20
2024-04-07T18:18:33.187Z,27.10
2024-04-07T18:21:01.665Z,27.10
2024-04-07T18:23:28.412Z,27.00
2024-04-07T18:25:55.367Z,27.00
2024-04-07T18:28:22.210Z,26.90
2024-04-07T18:30:49.019Z,26.90
2024-04-07T18:33:15.920Z,26.80
2024-04-07T18:35:42.690Z,26.70
2024-04-07T18:38:10.020Z,26.70
2024-04-07T18:40:36.824Z,26.60
2024-04-07T18:43:03.659Z,26.60
2024-04-07T18:45:30.419Z,26.50
2024-04-07T18:47:57.213Z,26.50
2024-04-07T18:50:24.106Z,26.40
2024-04-07T18:52:52.175Z,26.40
2024-04-07T18:55:21.738Z,26.30
2024-04-07T18:57:48.512Z,26.20
2024-04-07T19:00:15.428Z,26.20
2024-04-07T19:02:43.605Z,26.10
2024-04-07T19:05:10.937Z,26.10
2024-04-07T19:07:37.707Z,26.00
2024-04-07T19:10:04.667Z,26.00
2024-04-07T19:12:35.007Z,25.90
2024-04-07T19:15:02.155Z,25.90
2024-04-07T19:17:29.023Z,25.80
2024-04-07T19:19:56.206Z,25.70
2024-04-07T19:22:23.025Z,25.70
2024-04-07T19:24:49.762Z,25.60
2024-04-07T19:27:16.517Z,25.60
2024-04-07T19:29:43.297Z,25.60
2024-04-07T19:32:10.097Z,25.50
2024-04-07T19:34:36.868Z,25.50
2024-04-07T19:37:05.482Z,25.50
2024-04-07T19:39:32.249Z,25.40
2024-04-07T19:41:59.577Z,25.40
2024-04-07T19:44:26.421Z,25.30
2024-04-07T19:46:53.268Z,25.20
2024-04-07T19:49:20.029Z,25.20
2024-04-07T19:51:46.875Z,25.10
2024-04-07T19:54:14.161Z,25.10
2024-04-07T19:56:40.975Z,25.00
2024-04-07T19:59:07.803Z,25.00
2024-04-07T20:01:34.753Z,25.00
2024-04-07T20:04:01.496Z,24.90
2024-04-07T20:06:28.230Z,24.90
2024-04-07T20:08:59.428Z,24.80
2024-04-07T20:11:28.631Z,24.80
2024-04-07T20:13:55.843Z,24.80
2024-04-07T20:16:22.575Z,24.70
2024-04-07T20:18:49.577Z,24.70
2024-04-07T20:21:16.401Z,24.60
2024-04-07T20:23:43.146Z,24.60
2024-04-07T20:26:10.042Z,24.60
2024-04-07T20:28:36.804Z,24.50
2024-04-07T20:31:03.586Z,24.50
2024-04-07T20:33:30.359Z,24.50
2024-04-07T20:35:57.111Z,24.50
2024-04-07T20:38:25.150Z,24.40
2024-04-07T20:40:51.977Z,24.40
2024-04-07T20:43:18.792Z,24.30
2024-04-07T20:45:46.090Z,24.30
2024-04-07T20:48:12.859Z,24.30
2024-04-07T20:50:40.293Z,24.20
2024-04-07T20:53:08.052Z,24.20
2024-04-07T20:55:34.795Z,24.20
2024-04-07T20:58:01.535Z,24.20
2024-04-07T21:00:34.138Z,24.10
2024-04-07T21:03:07.462Z,24.10
2024-04-07T21:05:34.287Z,24.10
2024-04-07T21:08:01.058Z,24.10
2024-04-07T21:10:27.800Z,24.10
2024-04-07T21:12:54.528Z,24.10
2024-04-07T21:15:21.294Z,24.10
2024-04-07T21:17:48.058Z,24.00
2024-04-07T21:20:21.287Z,24.00
2024-04-07T21:22:48.817Z,24.00
2024-04-07T21:25:15.630Z,24.00
2024-04-07T21:27:42.405Z,23.90
2024-04-07T21:30:10.120Z,23.90
2024-04-07T21:32:37.035Z,23.90
2024-04-07T21:35:03.850Z,23.90
2024-04-07T21:37:30.637Z,23.90
2024-04-07T21:39:57.390Z,23.80
2024-04-07T21:42:24.149Z,23.80
2024-04-07T21:44:50.899Z,23.80
2024-04-07T21:47:17.676Z,23.80
2024-04-07T21:49:44.450Z,23.70
2024-04-07T21:52:11.329Z,23.70
2024-04-07T21:54:38.095Z,23.70
2024-04-07T21:57:05.082Z,23.70
2024-04-07T21:59:31.902Z,23.70
2024-04-07T22:01:58.707Z,23.70
2024-04-07T22:04:25.465Z,23.70
2024-04-07T22:06:52.208Z,23.60
2024-04-07T22:09:19.062Z,23.60
2024-04-07T22:11:45.798Z,23.50
2024-04-07T22:14:12.552Z,23.50
2024-04-07T22:16:39.339Z,23.50
2024-04-07T22:19:06.109Z,23.50
2024-04-07T22:21:32.860Z,23.40
2024-04-07T22:23:59.627Z,23.40
2024-04-07T22:26:26.437Z,23.40
2024-04-07T22:28:53.261Z,23.40
2024-04-07T22:31:20.028Z,23.40
2024-04-07T22:33:47.331Z,23.40
2024-04-07T22:36:15.420Z,23.40
2024-04-07T22:38:42.198Z,23.40
2024-04-07T22:41:08.968Z,23.40
2024-04-07T22:43:35.800Z,23.30
2024-04-07T22:46:02.649Z,23.30
2024-04-07T22:48:29.458Z,23.30
2024-04-07T22:50:56.223Z,23.30
2024-04-07T22:53:23.069Z,23.30
2024-04-07T22:55:49.827Z,23.30
2024-04-07T22:58:16.847Z,23.30
2024-04-07T23:00:43.817Z,23.20
2024-04-07T23:03:10.707Z,23.20
2024-04-07T23:05:40.591Z,23.20
2024-04-07T23:08:07.440Z,23.20
2024-04-07T23:10:34.172Z,23.20
2024-04-07T23:13:00.935Z,23.20
2024-04-07T23:15:27.819Z,23.20
2024-04-07T23:17:54.580Z,23.20
2024-04-07T23:20:21.359Z,23.20
2024-04-07T23:22:49.299Z,23.20
2024-04-07T23:25:16.128Z,23.10
2024-04-07T23:27:44.569Z,23.10
2024-04-07T23:30:11.353Z,23.10
2024-04-07T23:32:38.325Z,23.10
2024-04-07T23:35:05.471Z,23.10
2024-04-07T23:37:32.247Z,23.10
2024-04-07T23:39:59.012Z,23.10
2024-04-07T23:42:26.131Z,23.00
2024-04-07T23:44:52.864Z,23.00
2024-04-07T23:47:19.674Z,23.00
2024-04-07T23:49:46.454Z,22.90
2024-04-07T23:52:13.226Z,23.00
2024-04-07T23:54:39.962Z,22.90
2024-04-07T23:57:06.704Z,22.90
2024-04-07T23:59:33.847Z,22.90
